Airfield :
LOGIN :

Register | Disclaimer

   EN    FR    IT 

 










Legend :    VFR   Marginal VFR   IFR   Intensive IFR   Very Intensive IFR
Visi :
Ceiling :
>= 8 km
>= 3000ft
5 to 8 km
1000 to 3000 ft
1500m to 5 km
500 to 1000 ft
800 to 1500m
200 to 500 ft
< 800m
< 200 ft
Symbols :   Thunderstorms  Fog  Heavy snow  Heavy precipitations  Wind > 20 kt
SIGMETs :     Misc.  Thunderstorms  Icing  Turbulence  Mountain Waves  Volcanic Ashes







- Airport Elevation : 200 ft


EBBL - Klein Brogel AB

CURRENT METAR :
  • 200725Z AUTO 23008KT 9999 SCT031/// BKN066/// 13/12 Q1023 BLU

EXPIRED METARs :
  • 200655Z AUTO 23008KT 9999 BKN082/// 13/12 Q1023 BLU
  • 200625Z AUTO 22007KT 9999 OVC081/// 12/12 Q1022 BLU
  • 200555Z AUTO 22007KT 9999 FEW039/// BKN081/// 12/11 Q1022 BLU
  • 200525Z AUTO 22005KT 9999 FEW044/// BKN083/// 11/11 Q1022 BLU
  • 200455Z AUTO 22005KT 9999 BKN045/// 11/11 Q1021 BLU
  • 200448Z AUTO 22005KT 9999 OVC045/// 11/11 Q1021 BLU

Expired Forecast.
No reported NOTAMs for that airfield.



MET'MAP, your aeronautical weather chart ! - Copyright ORBIFLY December 2007 - Disclaimer

ORBIFLY MET'MAP TEAM :

Programming & Development : Alexandra Zaïnal
Concept & Development : Baudouin d'Aumeries
Co-Development & Prog : Marc-Olivier Méhu
Technical & hardware support : Manuel Goepfert

Contact : metmap@orbifly.com




SOURCES & CREDITS :

   NOAA